Time;durP1;ratioP1;P1;durP2;ratioP2;P2;SDS_P1;SDS_P2;PMS_P1;PMS_P2;Temp;Humidity;BMP_temperature;BMP_pressure;BME280_temperature;BME280_humidity;BME280_pressure;Samples;Min_cycle;Max_cycle;Signal;HPM_P1;HPM_P2
2022/04/18 00:02:07;;;;;;;50.25;26.23;;;;;;;9.81;52.22;101707.63;5069812;28;20143;-72
2022/04/18 00:04:34;;;;;;;50.38;28.40;;;;;;;9.81;51.90;101704.84;5067466;28;20079;-73
2022/04/18 00:07:02;;;;;;;56.05;28.70;;;;;;;9.79;50.63;101703.63;5066979;28;20059;-72
2022/04/18 00:09:33;;;;;;;53.08;27.90;;;;;;;9.76;51.61;101705.16;5069988;28;20808;-72
2022/04/18 00:12:01;;;;;;;52.15;27.88;;;;;;;9.69;52.84;101701.47;5066580;28;20781;-72
2022/04/18 00:14:27;;;;;;;52.42;28.60;;;;;;;9.64;52.85;101699.81;5062331;28;20157;-72
2022/04/18 00:16:54;;;;;;;53.20;27.98;;;;;;;9.60;52.65;101696.19;5061207;28;20048;-73
2022/04/18 00:19:21;;;;;;;54.40;29.52;;;;;;;9.56;53.09;101686.22;5069230;28;20055;-72
2022/04/18 00:21:47;;;;;;;53.65;28.52;;;;;;;9.50;53.13;101684.94;5068314;28;20474;-72
2022/04/18 00:24:16;;;;;;;55.72;31.88;;;;;;;9.47;53.00;101685.66;5067019;28;20049;-72
2022/04/18 00:26:43;;;;;;;58.85;32.50;;;;;;;9.43;52.78;101684.81;5067744;28;20483;-72
2022/04/18 00:29:10;;;;;;;66.13;32.58;;;;;;;9.40;53.60;101678.06;5055329;28;20045;-72
2022/04/18 00:31:37;;;;;;;65.85;33.22;;;;;;;9.35;53.07;101683.84;5055779;28;20131;-74
2022/04/18 00:34:05;;;;;;;68.57;34.58;;;;;;;9.31;52.52;101683.00;5061013;28;20044;-73
2022/04/18 00:36:32;;;;;;;62.90;34.05;;;;;;;9.31;52.92;101677.47;5057241;28;20051;-73
2022/04/18 00:38:59;;;;;;;67.82;34.65;;;;;;;9.19;52.63;101666.59;5067318;28;20048;-72
2022/04/18 00:41:25;;;;;;;62.35;33.72;;;;;;;9.26;53.31;101674.22;5066868;28;20497;-72
2022/04/18 00:43:52;;;;;;;59.85;32.17;;;;;;;9.19;54.03;101669.38;5068109;28;20044;-74
2022/04/18 00:46:20;;;;;;;63.47;32.90;;;;;;;9.20;52.76;101672.91;5054969;28;20144;-72
2022/04/18 00:48:48;;;;;;;62.33;32.75;;;;;;;9.16;53.60;101672.84;5056641;28;20131;-74
2022/04/18 00:51:19;;;;;;;61.28;33.33;;;;;;;9.12;53.72;101680.28;5066356;28;20076;-72
2022/04/18 00:53:46;;;;;;;70.05;34.97;;;;;;;9.05;52.52;101666.28;5066702;28;20087;-72
2022/04/18 00:56:15;;;;;;;71.53;36.33;;;;;;;9.05;53.94;101671.03;5066295;28;20068;-73
2022/04/18 00:58:43;;;;;;;57.80;33.95;;;;;;;8.98;53.24;101674.44;5060246;28;20075;-72
2022/04/18 01:01:10;;;;;;;68.35;34.67;;;;;;;8.96;52.80;101674.03;5066572;28;20056;-74
2022/04/18 01:03:36;;;;;;;66.70;34.75;;;;;;;8.89;52.51;101662.03;5058744;28;20066;-74
2022/04/18 01:06:04;;;;;;;66.70;35.15;;;;;;;8.85;52.07;101670.25;5066767;28;20058;-72
2022/04/18 01:08:34;;;;;;;66.15;37.08;;;;;;;8.76;54.04;101672.41;5061729;28;20568;-72
2022/04/18 01:11:01;;;;;;;75.10;36.45;;;;;;;8.68;54.95;101654.13;5059014;28;20127;-73
2022/04/18 01:13:28;;;;;;;59.97;32.83;;;;;;;8.61;55.29;101650.41;5061342;28;20044;-76
2022/04/18 01:15:56;;;;;;;64.47;34.40;;;;;;;8.63;55.65;101659.91;5062778;28;20049;-72
2022/04/18 01:18:23;;;;;;;61.58;32.80;;;;;;;8.67;54.61;101657.22;5060544;28;20463;-73
2022/04/18 01:20:50;;;;;;;65.85;34.53;;;;;;;8.63;54.37;101659.09;5065490;28;20080;-72
2022/04/18 01:23:17;;;;;;;64.90;32.85;;;;;;;8.60;53.95;101654.31;5054899;28;20687;-73
2022/04/18 01:31:14;;;;;;;68.20;35.40;;;;;;;8.57;54.92;101647.53;5063974;28;20056;-72
2022/04/18 01:33:40;;;;;;;61.70;32.55;;;;;;;8.54;55.34;101645.50;5068269;28;20066;-72
2022/04/18 01:36:07;;;;;;;65.32;36.38;;;;;;;8.51;55.15;101640.75;5068151;28;20059;-72
2022/04/18 01:38:34;;;;;;;62.13;36.38;;;;;;;8.48;54.91;101641.47;5070748;28;20052;-72
2022/04/18 01:41:00;;;;;;;58.85;34.38;;;;;;;8.40;56.21;101642.44;5061624;28;20055;-72
2022/04/18 01:43:27;;;;;;;61.10;33.03;;;;;;;8.30;55.15;101634.72;5072063;28;20048;-73
2022/04/18 01:45:53;;;;;;;56.10;33.63;;;;;;;8.31;54.93;101639.09;5071601;28;20059;-72
2022/04/18 01:48:20;;;;;;;59.60;31.48;;;;;;;8.29;55.73;101646.94;5071905;28;20048;-71
2022/04/18 01:50:46;;;;;;;59.28;32.90;;;;;;;8.26;54.89;101642.13;5071505;28;20048;-73
2022/04/18 01:53:13;;;;;;;59.63;33.95;;;;;;;8.27;55.62;101642.94;5065759;28;20567;-74
2022/04/18 01:55:39;;;;;;;66.15;34.42;;;;;;;8.24;55.88;101640.91;5059594;28;20094;-71
2022/04/18 01:58:06;;;;;;;57.28;33.55;;;;;;;8.21;56.32;101641.59;5062886;28;20131;-72
2022/04/18 02:00:32;;;;;;;59.38;33.92;;;;;;;8.14;56.21;101644.16;5071877;28;20167;-71
2022/04/18 02:02:59;;;;;;;59.95;33.17;;;;;;;8.16;55.38;101644.63;5070357;28;20044;-74
2022/04/18 02:05:26;;;;;;;70.47;34.72;;;;;;;8.10;56.83;101637.78;5071583;28;20591;-71
2022/04/18 02:07:52;;;;;;;56.33;32.83;;;;;;;8.06;55.70;101643.19;5077668;28;20061;-71
2022/04/18 02:10:19;;;;;;;60.28;32.42;;;;;;;7.96;56.73;101641.00;5071122;28;20049;-72
2022/04/18 02:12:45;;;;;;;58.75;33.10;;;;;;;7.91;57.59;101641.28;5064202;28;20223;-72
2022/04/18 02:15:12;;;;;;;57.30;33.63;;;;;;;7.87;58.02;101630.16;5071681;28;20131;-71
2022/04/18 02:17:38;;;;;;;58.83;32.40;;;;;;;7.86;58.50;101627.75;5071579;28;20423;-71
2022/04/18 02:20:06;;;;;;;61.03;33.28;;;;;;;7.78;56.98;101632.31;5071337;28;20053;-71
2022/04/18 02:22:33;;;;;;;56.17;32.13;;;;;;;7.75;56.38;101632.22;5069357;28;20059;-70
2022/04/18 02:24:59;;;;;;;53.85;32.15;;;;;;;7.75;56.42;101637.72;5069848;28;20094;-71
2022/04/18 02:27:26;;;;;;;56.67;32.42;;;;;;;7.71;56.35;101631.31;5071051;28;20515;-71
2022/04/18 02:29:52;;;;;;;57.80;33.35;;;;;;;7.60;57.64;101625.53;5059553;28;20055;-71
2022/04/18 02:35:05;;;;;;;56.25;32.13;;;;;;;7.55;59.52;101616.75;5051251;28;20132;-71
2022/04/18 02:37:31;;;;;;;53.38;32.40;;;;;;;7.56;58.91;101616.38;5050880;28;20063;-71
2022/04/18 02:39:59;;;;;;;60.58;32.38;;;;;;;7.56;58.59;101613.63;5054580;28;20040;-71
2022/04/18 02:42:26;;;;;;;64.15;34.92;;;;;;;7.53;58.89;101614.34;5068468;28;20055;-71
2022/04/18 02:44:53;;;;;;;54.85;32.72;;;;;;;7.54;58.36;101615.16;5055687;28;20063;-71
2022/04/18 02:47:19;;;;;;;57.58;32.85;;;;;;;7.52;59.43;101615.50;5065240;28;20477;-71
2022/04/18 02:49:46;;;;;;;60.88;33.60;;;;;;;7.50;60.79;101608.75;5063106;28;20052;-72
2022/04/18 02:52:12;;;;;;;60.58;34.22;;;;;;;7.48;60.94;101609.13;5067539;28;20143;-73
2022/04/18 02:54:39;;;;;;;57.67;32.22;;;;;;;7.49;59.18;101607.16;5070948;28;20077;-73
2022/04/18 02:57:05;;;;;;;56.58;31.90;;;;;;;7.44;58.94;101599.16;5069794;28;20049;-71
2022/04/18 02:59:32;;;;;;;52.00;29.95;;;;;;;7.40;58.86;101604.56;5069861;28;20055;-73
2022/04/18 03:01:58;;;;;;;55.00;28.60;;;;;;;7.31;59.48;101601.22;5067522;28;20139;-73
2022/04/18 03:04:25;;;;;;;52.70;31.25;;;;;;;7.26;60.15;101589.66;5070078;28;20060;-73
2022/04/18 03:06:51;;;;;;;52.17;30.63;;;;;;;7.24;60.40;101595.50;5070609;28;20604;-73
2022/04/18 03:09:19;;;;;;;57.90;32.03;;;;;;;7.16;60.79;101590.19;5074977;28;20044;-73
2022/04/18 03:11:45;;;;;;;54.13;28.92;;;;;;;7.14;60.40;101590.53;5068151;28;20114;-73
2022/04/18 03:14:12;;;;;;;55.70;30.23;;;;;;;7.07;59.60;101590.34;5070546;28;20040;-73
2022/04/18 03:16:38;;;;;;;53.35;30.35;;;;;;;6.99;59.87;101574.00;5070193;28;20055;-72
2022/04/18 03:19:05;;;;;;;51.25;29.10;;;;;;;6.96;60.84;101585.69;5070397;28;20052;-72
2022/04/18 03:21:31;;;;;;;53.85;30.40;;;;;;;6.97;61.48;101579.03;5068782;28;20059;-73
2022/04/18 03:23:58;;;;;;;53.83;31.13;;;;;;;6.93;60.81;101575.41;5064744;28;20058;-73
2022/04/18 03:26:24;;;;;;;53.20;31.45;;;;;;;6.95;60.78;101576.63;5070005;28;20132;-72
2022/04/18 03:28:51;;;;;;;55.63;29.90;;;;;;;6.98;62.25;101572.38;5068304;28;20052;-72
2022/04/18 03:31:17;;;;;;;58.00;31.15;;;;;;;6.98;61.89;101581.44;5052372;28;20206;-74
2022/04/18 03:33:44;;;;;;;57.53;32.58;;;;;;;6.94;61.50;101580.56;5067161;28;20076;-72
2022/04/18 03:41:41;;;;;;;55.85;32.28;;;;;;;6.86;62.52;101584.28;5065447;28;20062;-72
2022/04/18 03:44:09;;;;;;;49.38;29.85;;;;;;;6.84;62.27;101585.75;5068259;28;20127;-73
2022/04/18 03:46:35;;;;;;;54.00;30.83;;;;;;;6.70;63.11;101577.91;5069265;28;20504;-73
2022/04/18 03:49:02;;;;;;;52.35;30.20;;;;;;;6.73;64.64;101576.41;5063497;28;20052;-74
2022/04/18 03:51:28;;;;;;;54.20;31.45;;;;;;;6.71;63.74;101575.94;5069175;28;20075;-72
2022/04/18 03:53:55;;;;;;;56.40;31.58;;;;;;;6.78;63.36;101584.41;5069422;28;20052;-72
2022/04/18 03:56:22;;;;;;;52.70;29.95;;;;;;;6.77;63.59;101586.38;5069589;28;20059;-73
2022/04/18 03:58:48;;;;;;;48.13;30.40;;;;;;;6.63;63.87;101580.47;5068915;28;20789;-72
2022/04/18 04:01:14;;;;;;;53.75;30.15;;;;;;;6.66;64.56;101584.47;5065419;28;20250;-73
2022/04/18 04:03:45;;;;;;;56.97;30.45;;;;;;;6.61;64.92;101576.47;5050050;28;20082;-71
2022/04/18 04:06:12;;;;;;;52.70;29.98;;;;;;;6.60;64.99;101575.66;5049748;28;20076;-73
2022/04/18 04:08:38;;;;;;;57.75;33.95;;;;;;;6.66;65.14;101577.03;5065405;28;20048;-72
2022/04/18 04:11:05;;;;;;;49.28;31.13;;;;;;;6.66;65.87;101578.97;5068964;28;20072;-74
2022/04/18 04:13:31;;;;;;;50.75;30.55;;;;;;;6.63;66.80;101572.22;5068736;28;20040;-73
2022/04/18 04:15:58;;;;;;;49.17;29.73;;;;;;;6.63;67.23;101579.66;5068952;28;20095;-73
2022/04/18 04:18:24;;;;;;;51.60;30.35;;;;;;;6.64;66.01;101575.75;5069468;28;20055;-71
2022/04/18 04:20:51;;;;;;;47.65;29.08;;;;;;;6.59;67.40;101585.06;5068882;28;20094;-74
2022/04/18 04:23:17;;;;;;;51.97;29.30;;;;;;;6.61;66.60;101582.75;5059777;28;20527;-72
2022/04/18 04:25:44;;;;;;;51.88;28.33;;;;;;;6.61;66.32;101579.22;5069457;28;20052;-74
2022/04/18 04:28:11;;;;;;;45.30;28.52;;;;;;;6.60;65.01;101580.34;5065159;28;20135;-71
2022/04/18 04:30:37;;;;;;;50.25;27.35;;;;;;;6.52;65.51;101576.59;5052603;28;20470;-72
2022/04/18 04:33:04;;;;;;;44.78;26.50;;;;;;;6.51;65.82;101582.47;5063947;28;20487;-73
2022/04/18 04:35:30;;;;;;;44.33;25.15;;;;;;;6.48;64.77;101577.66;5068695;28;20848;-71
2022/04/18 04:37:57;;;;;;;48.58;25.02;;;;;;;6.45;66.52;101575.59;5067727;28;20048;-72
2022/04/18 04:40:23;;;;;;;42.15;24.05;;;;;;;6.44;65.54;101574.81;5068038;28;20664;-74
2022/04/18 04:42:50;;;;;;;45.72;24.10;;;;;;;6.40;65.00;101575.84;5067637;28;20053;-71
2022/04/18 04:45:16;;;;;;;44.83;26.48;;;;;;;6.39;66.78;101579.75;5069162;28;20050;-72
2022/04/18 04:47:43;;;;;;;48.40;26.70;;;;;;;6.37;67.47;101582.03;5068296;28;20086;-72
2022/04/18 04:50:10;;;;;;;41.67;24.85;;;;;;;6.37;68.20;101573.78;5068937;28;20067;-75
2022/04/18 04:52:36;;;;;;;42.97;25.30;;;;;;;6.39;68.05;101577.00;5068040;28;20048;-74
2022/04/18 04:55:06;;;;;;;46.15;25.88;;;;;;;6.40;67.24;101573.09;5055134;28;20164;-72
2022/04/18 04:57:33;;;;;;;41.97;24.95;;;;;;;6.39;68.87;101574.25;5068923;28;20052;-71
2022/04/18 05:00:00;;;;;;;43.03;25.50;;;;;;;6.39;68.93;101577.00;5066212;28;20500;-73
2022/04/18 05:02:26;;;;;;;42.55;24.52;;;;;;;6.37;68.37;101579.28;5068159;28;20262;-74
2022/04/18 05:04:53;;;;;;;44.90;26.48;;;;;;;6.35;70.03;101576.09;5064703;28;20045;-73
2022/04/18 05:07:19;;;;;;;45.45;26.67;;;;;;;6.35;68.40;101585.13;5069203;28;20053;-74
2022/04/18 05:09:46;;;;;;;49.05;27.13;;;;;;;6.29;69.19;101580.22;5078717;28;20139;-71
2022/04/18 05:12:12;;;;;;;54.65;28.08;;;;;;;6.35;68.44;101587.88;5066464;28;20467;-75
2022/04/18 05:14:39;;;;;;;52.35;27.63;;;;;;;6.42;68.54;101587.31;5066202;28;20441;-72
2022/04/18 05:17:05;;;;;;;44.65;25.92;;;;;;;6.48;68.77;101581.19;5066430;28;20104;-71
2022/04/18 05:19:32;;;;;;;46.72;26.15;;;;;;;6.50;68.22;101587.16;5068655;28;20052;-72
2022/04/18 05:21:59;;;;;;;42.70;24.73;;;;;;;6.50;69.21;101580.84;5068191;28;20048;-74
2022/04/18 05:24:25;;;;;;;51.13;24.23;;;;;;;6.57;69.44;101581.06;5062641;28;20049;-72
2022/04/18 05:26:52;;;;;;;45.75;25.33;;;;;;;6.60;68.54;101596.84;5058695;28;20670;-72
2022/04/18 05:29:18;;;;;;;42.33;23.50;;;;;;;6.62;68.30;101589.84;5061474;28;20129;-73
2022/04/18 05:31:45;;;;;;;40.33;22.98;;;;;;;6.66;67.18;101587.22;5062093;28;20064;-73
2022/04/18 05:34:11;;;;;;;46.22;23.38;;;;;;;6.75;68.37;101588.66;5060686;28;20044;-75
2022/04/18 05:36:38;;;;;;;43.08;23.55;;;;;;;6.78;68.16;101598.97;5069651;28;20136;-77
2022/04/18 05:39:04;;;;;;;44.33;23.05;;;;;;;6.88;68.61;101601.22;5067261;28;20048;-74
2022/04/18 05:41:31;;;;;;;41.95;23.75;;;;;;;6.99;69.01;101596.00;5068334;28;20052;-75
2022/04/18 05:43:57;;;;;;;41.00;22.30;;;;;;;7.05;67.88;101591.81;5068723;28;20433;-77
2022/04/18 05:46:26;;;;;;;39.17;22.23;;;;;;;7.16;68.91;101596.47;5066987;28;20481;-75
2022/04/18 05:48:53;;;;;;;43.40;23.88;;;;;;;7.25;69.11;101599.84;5060425;28;20549;-74
2022/04/18 05:51:24;;;;;;;42.03;22.90;;;;;;;7.34;68.60;101600.50;5069440;28;20083;-74
2022/04/18 05:53:50;;;;;;;40.20;21.83;;;;;;;7.46;67.67;101605.13;5079154;28;20055;-76
2022/04/18 05:56:17;;;;;;;39.17;21.85;;;;;;;7.54;67.56;101612.41;5067792;28;20475;-74
2022/04/18 05:58:43;;;;;;;36.67;20.77;;;;;;;7.62;68.73;101614.16;5067837;28;20067;-74
2022/04/18 06:01:10;;;;;;;35.47;21.40;;;;;;;7.63;68.54;101605.56;5064992;28;20059;-75
2022/04/18 06:03:37;;;;;;;42.35;22.67;;;;;;;7.72;67.99;101617.19;5064305;28;20052;-74
2022/04/18 06:06:04;;;;;;;38.67;20.40;;;;;;;7.77;69.40;101608.66;5063115;28;20040;-75
2022/04/18 06:08:30;;;;;;;42.88;22.30;;;;;;;7.86;70.53;101611.22;5072989;28;20143;-74
2022/04/18 06:10:57;;;;;;;37.38;20.48;;;;;;;7.90;70.11;101609.38;5066984;28;20575;-76
2022/04/18 06:13:23;;;;;;;39.85;21.60;;;;;;;8.00;70.54;101609.59;5065275;28;20062;-74
2022/04/18 06:15:52;;;;;;;40.90;21.20;;;;;;;8.10;69.34;101612.97;5071124;28;20070;-74
2022/04/18 06:18:19;;;;;;;36.65;19.38;;;;;;;8.19;67.61;101613.56;5068814;28;20049;-76
2022/04/18 06:20:45;;;;;;;36.00;19.45;;;;;;;8.27;66.60;101618.13;5078076;28;20066;-74
2022/04/18 06:23:15;;;;;;;39.50;19.70;;;;;;;8.38;66.38;101614.44;5062417;28;20060;-75
2022/04/18 06:25:41;;;;;;;38.13;19.75;;;;;;;8.44;66.65;101606.69;5075950;28;20063;-74
2022/04/18 06:28:08;;;;;;;36.53;20.10;;;;;;;8.55;65.54;101611.28;5065732;28;20045;-75
2022/04/18 06:30:35;;;;;;;34.65;18.98;;;;;;;8.61;65.44;101598.75;5069093;28;20423;-77
2022/04/18 06:33:01;;;;;;;41.38;20.55;;;;;;;8.82;63.79;101603.94;5070587;28;20203;-76
2022/04/18 06:35:28;;;;;;;42.17;21.02;;;;;;;8.97;62.24;101609.38;5070313;28;20078;-73
2022/04/18 06:37:54;;;;;;;41.60;21.52;;;;;;;9.13;61.32;101615.59;5072099;28;20062;-73
2022/04/18 06:40:21;;;;;;;46.70;23.83;;;;;;;9.29;60.09;101609.97;5059122;28;20123;-75
2022/04/18 06:42:47;;;;;;;44.75;22.95;;;;;;;9.44;59.57;101620.91;5068531;28;20079;-75
2022/04/18 06:45:14;;;;;;;50.50;23.67;;;;;;;9.58;58.73;101621.13;5071477;28;20056;-74
2022/04/18 06:47:40;;;;;;;46.60;24.63;;;;;;;9.73;58.30;101622.19;5071007;28;20062;-74
2022/04/18 06:50:11;;;;;;;51.88;24.42;;;;;;;9.87;58.12;101622.41;5062423;28;20048;-75
2022/04/18 06:52:44;;;;;;;53.33;24.42;;;;;;;10.00;57.56;101616.28;5065443;28;20084;-77
2022/04/18 06:55:11;;;;;;;49.60;23.15;;;;;;;10.14;57.08;101622.09;5059543;28;20131;-74
2022/04/18 06:57:38;;;;;;;42.80;21.98;;;;;;;10.31;56.36;101621.56;5075002;28;20128;-74
2022/04/18 07:00:05;;;;;;;41.72;19.92;;;;;;;10.47;55.96;101618.59;5068956;28;20150;-74
2022/04/18 07:02:32;;;;;;;46.65;19.63;;;;;;;10.61;55.70;101617.97;5068363;28;20059;-74
2022/04/18 07:04:59;;;;;;;33.47;16.00;;;;;;;10.75;55.14;101615.41;5061937;28;20048;-77
2022/04/18 07:07:26;;;;;;;29.23;14.82;;;;;;;10.90;54.81;101614.41;5070647;28;20135;-77
2022/04/18 07:09:52;;;;;;;34.25;14.82;;;;;;;11.04;54.23;101615.38;5064089;28;20053;-74
2022/04/18 07:12:23;;;;;;;29.58;14.57;;;;;;;11.11;53.76;101604.38;5065411;28;20120;-72
2022/04/18 07:14:50;;;;;;;31.70;13.85;;;;;;;11.35;53.78;101620.44;5060907;28;20175;-69
2022/04/18 07:17:16;;;;;;;33.35;14.90;;;;;;;11.50;53.39;101611.09;5065957;28;20048;-70
2022/04/18 07:19:43;;;;;;;34.78;15.85;;;;;;;11.60;52.38;101610.38;5070469;28;20131;-75
2022/04/18 07:22:09;;;;;;;30.48;14.20;;;;;;;11.74;50.89;101610.53;5070078;28;20509;-75
2022/04/18 07:24:36;;;;;;;36.72;15.98;;;;;;;11.87;50.63;101611.03;5062818;28;20055;-75
2022/04/18 07:27:02;;;;;;;49.22;20.85;;;;;;;12.00;49.93;101613.13;5064259;28;20131;-75
2022/04/18 07:29:30;;;;;;;42.30;19.20;;;;;;;12.13;49.93;101621.94;5067550;28;20040;-76
2022/04/18 07:31:57;;;;;;;47.08;19.00;;;;;;;12.19;49.24;101601.75;5070537;28;20131;-73
2022/04/18 07:34:23;;;;;;;45.65;20.35;;;;;;;12.33;48.73;101606.59;5084375;28;20056;-72
2022/04/18 07:36:50;;;;;;;48.53;21.60;;;;;;;12.39;48.44;101603.06;5065379;28;20136;-73
2022/04/18 07:39:16;;;;;;;52.60;22.65;;;;;;;12.56;47.79;101607.13;5067595;28;20155;-76
2022/04/18 07:41:43;;;;;;;52.60;24.55;;;;;;;12.65;47.82;101604.78;5072545;28;20131;-74
2022/04/18 07:44:09;;;;;;;43.70;22.50;;;;;;;12.72;47.32;101602.81;5061556;28;20053;-74
2022/04/18 07:46:36;;;;;;;43.65;20.77;;;;;;;12.85;47.26;101606.84;5054000;28;20147;-76
2022/04/18 07:49:02;;;;;;;34.53;17.52;;;;;;;12.97;46.57;101602.94;5069287;28;20074;-72
2022/04/18 07:51:34;;;;;;;30.17;13.52;;;;;;;13.09;46.41;101607.38;5069584;28;20128;-75
2022/04/18 07:54:05;;;;;;;30.38;13.52;;;;;;;13.19;45.95;101598.25;5065068;28;20049;-73
2022/04/18 07:56:32;;;;;;;24.98;11.50;;;;;;;13.28;45.62;101602.25;5067869;28;20136;-73
2022/04/18 07:58:58;;;;;;;25.27;9.50;;;;;;;13.35;44.23;101602.25;5068529;28;20080;-74
2022/04/18 08:01:29;;;;;;;27.27;10.90;;;;;;;13.49;44.41;101601.47;5071753;28;20048;-75
2022/04/18 08:03:57;;;;;;;29.70;11.60;;;;;;;13.61;44.63;101607.44;5064582;28;20048;-74
2022/04/18 08:06:24;;;;;;;24.27;12.35;;;;;;;13.76;44.55;101602.66;5064721;28;20076;-72
2022/04/18 08:08:50;;;;;;;25.60;10.85;;;;;;;13.90;45.23;101595.09;5061596;28;20052;-69
2022/04/18 08:11:17;;;;;;;20.15;8.35;;;;;;;14.00;43.71;101599.09;5066805;28;20433;-74
2022/04/18 08:13:48;;;;;;;17.58;7.43;;;;;;;14.09;40.95;101599.47;5068505;28;20056;-75
2022/04/18 08:16:15;;;;;;;19.30;8.27;;;;;;;14.21;42.31;101599.06;5071020;28;20064;-75
2022/04/18 08:18:47;;;;;;;22.45;8.57;;;;;;;14.30;42.50;101600.25;5070578;28;20060;-74
2022/04/18 08:21:15;;;;;;;20.00;8.98;;;;;;;14.43;42.48;101598.63;5059023;28;20053;-74
2022/04/18 08:23:47;;;;;;;22.05;9.65;;;;;;;14.50;41.91;101595.81;5066134;28;20055;-77
2022/04/18 08:26:13;;;;;;;10.23;4.78;;;;;;;14.59;40.48;101595.41;5072427;28;20048;-74
2022/04/18 08:28:40;;;;;;;13.25;5.57;;;;;;;14.73;40.40;101592.56;5072550;28;20552;-75
2022/04/18 08:31:08;;;;;;;10.57;5.07;;;;;;;14.79;40.26;101596.50;5065088;28;20056;-72
2022/04/18 08:33:35;;;;;;;15.63;5.70;;;;;;;14.95;40.87;101591.28;5067574;28;20052;-74
2022/04/18 08:36:03;;;;;;;12.57;5.07;;;;;;;15.05;39.75;101593.97;5064796;28;20122;-72
2022/04/18 08:38:29;;;;;;;14.38;5.70;;;;;;;15.08;38.88;101593.19;5072185;28;20144;-73
2022/04/18 08:41:00;;;;;;;14.02;6.28;;;;;;;15.20;39.18;101589.13;5070244;28;20072;-73
2022/04/18 08:43:27;;;;;;;12.73;5.43;;;;;;;15.28;39.46;101587.88;5070963;28;20167;-74
2022/04/18 08:45:55;;;;;;;14.02;5.57;;;;;;;15.24;38.71;101579.53;5053414;28;20059;-74
2022/04/18 08:53:59;;;;;;;14.30;6.03;;;;;;;15.56;37.92;101584.94;5059618;28;20426;-73
2022/04/18 08:56:26;;;;;;;14.70;5.63;;;;;;;15.69;38.41;101585.22;5066673;28;20576;-72
2022/04/18 08:58:53;;;;;;;16.27;5.68;;;;;;;15.83;38.89;101587.88;5067577;28;20121;-74
2022/04/18 09:01:19;;;;;;;13.82;5.75;;;;;;;15.91;37.36;101579.03;5065293;28;20076;-74
2022/04/18 09:03:46;;;;;;;13.80;5.68;;;;;;;15.89;35.75;101581.44;5073614;28;20097;-73
2022/04/18 09:06:14;;;;;;;12.73;5.63;;;;;;;15.97;36.49;101579.38;5067045;28;20137;-70
2022/04/18 09:08:51;;;;;;;13.98;5.45;;;;;;;16.20;39.05;101579.56;5067803;28;20139;-70
2022/04/18 09:11:28;;;;;;;11.55;5.32;;;;;;;16.29;37.47;101575.06;5065579;28;20048;-71
2022/04/18 09:14:02;;;;;;;13.77;5.88;;;;;;;16.44;37.25;101570.91;5065786;28;20102;-72
2022/04/18 09:16:30;;;;;;;12.52;6.25;;;;;;;16.56;38.18;101573.19;5067090;28;20044;-70
2022/04/18 09:19:05;;;;;;;13.00;6.03;;;;;;;16.76;36.86;101568.53;5066815;28;20355;-70
2022/04/18 09:21:32;;;;;;;16.08;6.82;;;;;;;17.02;37.61;101569.78;5065043;28;20052;-76
2022/04/18 09:23:59;;;;;;;18.70;6.45;;;;;;;17.15;37.54;101560.38;5069737;28;20117;-74
2022/04/18 09:26:25;;;;;;;15.93;6.00;;;;;;;17.26;36.31;101560.25;5071763;28;20051;-68
2022/04/18 09:29:03;;;;;;;16.00;6.25;;;;;;;17.21;35.55;101552.34;5065745;28;20060;-71
2022/04/18 09:31:38;;;;;;;15.35;6.45;;;;;;;17.31;35.34;101546.56;5059808;28;20101;-70
2022/04/18 09:34:05;;;;;;;16.85;7.07;;;;;;;17.47;36.32;101546.75;5063855;28;20044;-69
2022/04/18 09:36:32;;;;;;;15.75;6.35;;;;;;;17.56;35.56;101546.97;5067395;28;20147;-68
2022/04/18 09:38:58;;;;;;;14.07;5.63;;;;;;;17.65;36.44;101544.44;5052539;28;20068;-70
2022/04/18 09:41:26;;;;;;;15.07;6.30;;;;;;;17.81;36.11;101535.38;5063846;28;20054;-71
2022/04/18 09:43:54;;;;;;;16.60;6.72;;;;;;;17.96;36.05;101536.72;5079275;28;20056;-78
2022/04/18 09:46:22;;;;;;;13.93;6.25;;;;;;;18.12;35.65;101539.59;5072617;28;20135;-76
2022/04/18 09:48:50;;;;;;;13.70;6.18;;;;;;;18.17;35.80;101541.91;5068437;28;20045;-69
2022/04/18 09:51:25;;;;;;;16.98;7.78;;;;;;;18.29;35.24;101527.25;5065219;28;20050;-69
2022/04/18 09:53:57;;;;;;;13.82;5.82;;;;;;;18.36;33.32;101529.94;5063097;28;20514;-70
2022/04/18 09:56:26;;;;;;;13.85;5.65;;;;;;;18.37;34.14;101519.53;5063265;28;20135;-71
2022/04/18 09:58:55;;;;;;;11.80;5.55;;;;;;;18.52;34.12;101518.81;5063495;28;20155;-71
2022/04/18 10:01:33;;;;;;;13.30;5.50;;;;;;;18.79;34.25;101511.00;5063709;28;20509;-72
2022/04/18 10:04:03;;;;;;;13.65;5.75;;;;;;;18.86;33.33;101508.03;5065864;28;20048;-75
2022/04/18 10:06:30;;;;;;;12.07;5.13;;;;;;;18.81;32.32;101508.56;5065657;28;20103;-70
2022/04/18 10:08:57;;;;;;;11.77;4.97;;;;;;;18.79;31.75;101505.41;5059091;28;20082;-70
2022/04/18 10:11:24;;;;;;;8.63;4.35;;;;;;;18.91;29.71;101496.31;5066164;28;20456;-75
2022/04/18 10:13:51;;;;;;;11.27;5.38;;;;;;;19.05;31.13;101490.38;5075437;28;20406;-73
2022/04/18 10:16:19;;;;;;;9.68;4.50;;;;;;;19.10;30.70;101491.88;5069218;28;20049;-75
2022/04/18 10:18:54;;;;;;;11.02;4.90;;;;;;;19.14;29.25;101498.97;5068689;28;20083;-75
2022/04/18 10:21:30;;;;;;;10.18;4.95;;;;;;;19.26;30.24;101491.91;5068265;28;20048;-70
2022/04/18 10:24:12;;;;;;;9.75;4.78;;;;;;;19.35;30.02;101492.09;5065286;28;20462;-70
2022/04/18 10:26:57;;;;;;;11.85;4.78;;;;;;;19.29;29.37;101489.03;5065569;28;20527;-71
2022/04/18 10:29:27;;;;;;;14.25;5.35;;;;;;;19.56;29.29;101483.13;5070800;28;20500;-76
2022/04/18 10:31:59;;;;;;;14.30;5.30;;;;;;;19.76;29.38;101484.59;5070920;28;20059;-77
2022/04/18 10:34:31;;;;;;;17.45;6.43;;;;;;;19.96;30.03;101482.44;5066229;28;20045;-74
2022/04/18 10:37:02;;;;;;;12.55;5.18;;;;;;;20.12;29.62;101476.78;5065696;28;20106;-76
2022/04/18 10:39:37;;;;;;;11.50;5.32;;;;;;;20.18;29.25;101472.19;5070757;28;20055;-74
2022/04/18 10:42:31;;;;;;;11.13;4.80;;;;;;;20.31;29.17;101470.22;5067351;28;20079;-69
2022/04/18 10:44:58;;;;;;;11.60;5.35;;;;;;;20.49;29.46;101468.91;5066847;28;20047;-69
2022/04/18 10:47:26;;;;;;;9.88;4.72;;;;;;;20.81;28.98;101468.72;5068600;28;20127;-69
2022/04/18 10:50:19;;;;;;;12.13;5.18;;;;;;;20.96;28.16;101472.69;5071172;28;20056;-70
2022/04/18 10:53:06;;;;;;;13.27;5.90;;;;;;;21.04;28.20;101469.19;5054061;28;20621;-68
2022/04/18 10:55:32;;;;;;;9.35;3.95;;;;;;;20.96;27.77;101462.22;5062960;28;20045;-68
2022/04/18 10:58:15;;;;;;;12.93;6.00;;;;;;;21.02;28.33;101468.84;5074939;28;20587;-69
2022/04/18 11:00:54;;;;;;;16.20;6.43;;;;;;;21.14;28.57;101453.22;5066183;28;20056;-69
2022/04/18 11:03:40;;;;;;;13.57;5.57;;;;;;;21.04;28.45;101448.72;5062352;28;20079;-69
2022/04/18 11:06:36;;;;;;;13.45;5.68;;;;;;;21.25;28.83;101456.44;5067388;28;20866;-70
2022/04/18 11:09:08;;;;;;;13.32;5.55;;;;;;;21.46;27.92;101453.72;5069374;28;20442;-69
2022/04/18 11:11:53;;;;;;;15.88;6.07;;;;;;;21.71;28.10;101458.47;5070044;28;20048;-69
2022/04/18 11:14:20;;;;;;;13.15;5.22;;;;;;;21.58;27.09;101449.28;5062772;28;20050;-70
2022/04/18 11:16:49;;;;;;;11.93;5.32;;;;;;;21.76;27.43;101449.47;5071289;28;20127;-68
2022/04/18 11:19:15;;;;;;;14.02;4.93;;;;;;;21.83;27.45;101443.56;5070020;28;20102;-71
2022/04/18 11:21:57;;;;;;;13.73;5.25;;;;;;;21.97;27.43;101443.09;5070116;28;20082;-69
2022/04/18 11:24:40;;;;;;;16.33;5.20;;;;;;;21.94;26.19;101432.72;5066626;28;20588;-70
2022/04/18 11:27:06;;;;;;;10.93;5.43;;;;;;;22.14;27.68;101430.38;5063901;28;20488;-70
2022/04/18 11:29:33;;;;;;;12.05;5.60;;;;;;;22.35;27.66;101432.38;5065866;28;20572;-71
2022/04/18 11:32:00;;;;;;;11.10;4.90;;;;;;;22.54;26.96;101432.03;5070905;28;20556;-74
2022/04/18 11:34:28;;;;;;;12.88;5.38;;;;;;;22.72;26.67;101431.34;5073658;28;20131;-71
2022/04/18 11:36:56;;;;;;;11.40;5.32;;;;;;;22.73;25.81;101427.28;5074333;28;20119;-72
2022/04/18 11:39:23;;;;;;;11.10;4.95;;;;;;;22.86;25.85;101422.31;5067837;28;20056;-72
2022/04/18 11:42:05;;;;;;;12.73;5.47;;;;;;;23.10;25.50;101428.97;5069186;28;20131;-73